createdAt,value
2023-04-13T00:01:39.918Z,179
2023-04-13T00:07:43.660Z,181
2023-04-13T00:11:47.097Z,266
2023-04-13T00:17:52.119Z,153
2023-04-13T00:21:54.568Z,220
2023-04-13T00:25:57.638Z,209
2023-04-13T00:27:58.929Z,194
2023-04-13T00:32:01.909Z,177
2023-04-13T00:34:03.632Z,171
2023-04-13T00:38:06.554Z,179
2023-04-13T00:44:10.418Z,184
2023-04-13T00:50:15.182Z,199
2023-04-13T00:54:17.473Z,179
2023-04-13T01:00:21.554Z,226
2023-04-13T01:04:23.993Z,173
2023-04-13T01:06:25.466Z,174
2023-04-13T01:10:28.928Z,179
2023-04-13T01:14:32.326Z,165
2023-04-13T01:16:34.151Z,174
2023-04-13T01:20:36.114Z,164
2023-04-13T01:26:39.684Z,188
2023-04-13T01:30:42.228Z,171
2023-04-13T01:32:44.104Z,227
2023-04-13T01:36:47.073Z,158
2023-04-13T01:42:51.449Z,301
2023-04-13T01:46:54.918Z,215
2023-04-13T01:48:56.472Z,170
2023-04-13T01:52:59.696Z,222
2023-04-13T01:57:11.692Z,360
2023-04-13T01:59:04.399Z,360
2023-04-13T02:03:07.056Z,360
2023-04-13T02:09:11.872Z,177
2023-04-13T02:13:14.784Z,154
2023-04-13T02:15:16.097Z,168
2023-04-13T02:19:19.452Z,145
2023-04-13T02:25:23.991Z,202
2023-04-13T02:29:26.486Z,184
2023-04-13T02:31:28.280Z,179
2023-04-13T02:35:30.761Z,208
2023-04-13T02:39:34.120Z,233
2023-04-13T02:41:36.057Z,233
2023-04-13T02:45:40.049Z,235
2023-04-13T02:49:42.190Z,230
2023-04-13T02:51:43.223Z,230
2023-04-13T02:55:46.564Z,174
2023-04-13T02:57:47.911Z,360
2023-04-13T03:01:51.017Z,212
2023-04-13T03:07:55.310Z,170
2023-04-13T03:14:00.754Z,170
2023-04-13T03:18:03.445Z,170
2023-04-13T03:22:06.514Z,207
2023-04-13T03:24:08.439Z,210
2023-04-13T03:28:11.184Z,185
2023-04-13T03:32:14.195Z,169
2023-04-13T03:34:16.076Z,174
2023-04-13T03:38:18.202Z,184
2023-04-13T03:40:19.292Z,190
2023-04-13T03:42:20.361Z,174
2023-04-13T03:44:22.041Z,125
2023-04-13T03:50:25.939Z,170
2023-04-13T03:56:30.226Z,215
2023-04-13T04:00:32.723Z,212
2023-04-13T04:06:37.199Z,185
2023-04-13T04:10:39.816Z,230
2023-04-13T04:12:41.661Z,239
2023-04-13T04:16:45.048Z,216
2023-04-13T04:20:47.905Z,179
2023-04-13T04:22:48.909Z,173
2023-04-13T04:26:52.280Z,193
2023-04-13T04:32:57.143Z,213
2023-04-13T04:37:03.037Z,208
2023-04-13T04:39:00.632Z,198
2023-04-13T04:43:03.662Z,150
2023-04-13T04:49:08.201Z,204
2023-04-13T04:55:13.203Z,214
2023-04-13T04:59:16.055Z,229
2023-04-13T05:02:01.309Z,185
2023-04-13T05:04:02.559Z,232
2023-04-13T05:10:07.436Z,174
2023-04-13T05:14:10.978Z,239
2023-04-13T05:16:11.922Z,189
2023-04-13T05:20:14.393Z,291
2023-04-13T05:26:18.977Z,206
2023-04-13T05:30:22.235Z,242
2023-04-13T05:32:23.221Z,252
2023-04-13T05:36:26.331Z,360
2023-04-13T05:40:29.090Z,228
2023-04-13T05:42:30.208Z,186
2023-04-13T05:46:33.328Z,165
2023-04-13T05:50:35.890Z,184
2023-04-13T05:52:37.245Z,224
2023-04-13T05:56:39.918Z,222
2023-04-13T05:58:41.848Z,224
2023-04-13T06:00:43.162Z,244
2023-04-13T06:02:45.094Z,228
2023-04-13T06:08:49.418Z,211
2023-04-13T06:14:53.553Z,178
2023-04-13T06:18:57.182Z,173
2023-04-13T06:23:00.831Z,184
2023-04-13T06:25:01.883Z,215
2023-04-13T06:29:04.750Z,226
2023-04-13T06:33:07.429Z,224
2023-04-13T06:35:09.126Z,140
2023-04-13T06:39:12.382Z,241
2023-04-13T06:41:14.181Z,334
2023-04-13T06:43:22.755Z,209
2023-04-13T06:45:17.522Z,224
2023-04-13T06:51:21.446Z,217
2023-04-13T06:53:22.527Z,240
2023-04-13T06:57:25.349Z,360
2023-04-13T07:01:27.999Z,226
2023-04-13T07:07:31.874Z,232
2023-04-13T07:11:35.203Z,233
2023-04-13T07:13:36.682Z,219
2023-04-13T07:17:39.416Z,218
2023-04-13T07:21:41.845Z,226
2023-04-13T07:23:44.220Z,227
2023-04-13T07:27:46.901Z,196
2023-04-13T07:33:51.105Z,169
2023-04-13T07:37:53.918Z,298
2023-04-13T07:39:54.869Z,151
2023-04-13T07:43:57.169Z,164
2023-04-13T07:50:00.635Z,188
2023-04-13T07:54:02.824Z,179
2023-04-13T07:56:03.753Z,186
2023-04-13T08:00:06.091Z,216
2023-04-13T08:04:09.029Z,206
2023-04-13T08:06:10.039Z,226
2023-04-13T08:10:13.364Z,203
2023-04-13T08:14:16.232Z,226
2023-04-13T08:16:17.959Z,234
2023-04-13T08:20:21.968Z,238
2023-04-13T08:22:23.244Z,285
2023-04-13T08:26:26.595Z,218
2023-04-13T08:32:30.800Z,214
2023-04-13T08:38:36.647Z,196
2023-04-13T08:42:37.795Z,228
2023-04-13T08:48:50.329Z,187
2023-04-13T08:52:45.654Z,262
2023-04-13T08:56:49.221Z,227
2023-04-13T08:58:50.884Z,222
2023-04-13T09:03:03.582Z,182
2023-04-13T09:04:53.895Z,204
2023-04-13T09:08:56.702Z,252
2023-04-13T09:15:00.423Z,202
2023-04-13T09:21:04.435Z,204
2023-04-13T09:25:07.134Z,189
2023-04-13T09:29:10.397Z,240
2023-04-13T09:31:11.563Z,183
2023-04-13T09:35:14.001Z,174
2023-04-13T09:37:15.845Z,198
2023-04-13T09:39:16.870Z,227
2023-04-13T09:41:18.022Z,289
2023-04-13T09:47:22.427Z,168
2023-04-13T09:53:26.189Z,228
2023-04-13T09:57:29.399Z,210
2023-04-13T10:03:33.007Z,244
2023-04-13T10:07:35.331Z,206
2023-04-13T10:09:36.566Z,186
2023-04-13T10:13:39.696Z,218
2023-04-13T10:17:42.729Z,292
2023-04-13T10:19:44.253Z,229
2023-04-13T10:23:47.434Z,360
2023-04-13T10:29:51.626Z,194
2023-04-13T10:33:54.388Z,237
2023-04-13T10:35:55.568Z,192
2023-04-13T10:39:58.753Z,210
2023-04-13T10:46:02.495Z,211
2023-04-13T10:50:05.628Z,218
2023-04-13T10:52:06.602Z,192
2023-04-13T10:56:09.198Z,198
2023-04-13T11:00:12.161Z,231
2023-04-13T11:02:13.332Z,229
2023-04-13T11:06:15.721Z,212
2023-04-13T11:12:19.973Z,210
2023-04-13T11:16:23.240Z,200
2023-04-13T11:18:24.717Z,219
2023-04-13T11:22:26.882Z,295
2023-04-13T11:28:30.860Z,223
2023-04-13T11:34:35.795Z,219
2023-04-13T11:38:38.792Z,235
2023-04-13T11:42:41.618Z,188
2023-04-13T11:44:42.987Z,226
2023-04-13T11:47:28.942Z,360
2023-04-13T11:49:30.463Z,240
2023-04-13T11:53:32.880Z,226
2023-04-13T11:55:42.536Z,269
2023-04-13T11:59:37.039Z,254
2023-04-13T12:05:41.032Z,166
2023-04-13T12:11:49.235Z,252
2023-04-13T12:16:04.787Z,171
2023-04-13T12:21:52.591Z,235
2023-04-13T12:25:54.791Z,246
2023-04-13T12:27:56.437Z,360
2023-04-13T12:32:00.047Z,251
2023-04-13T12:36:03.611Z,171
2023-04-13T12:38:05.494Z,186
2023-04-13T12:42:08.326Z,230
2023-04-13T12:48:11.871Z,229
2023-04-13T12:52:14.660Z,210
2023-04-13T12:54:16.218Z,232
2023-04-13T12:58:19.176Z,296
2023-04-13T13:04:24.041Z,220
2023-04-13T13:08:26.280Z,210
2023-04-13T13:10:29.849Z,215
2023-04-13T13:14:29.916Z,235
2023-04-13T13:18:38.764Z,235
2023-04-13T13:20:34.095Z,233
2023-04-13T13:24:36.816Z,238
2023-04-13T13:30:41.605Z,201
2023-04-13T13:34:45.342Z,304
2023-04-13T13:36:46.920Z,266
2023-04-13T13:40:49.874Z,227
2023-04-13T13:46:53.561Z,98
2023-04-13T13:50:56.481Z,337
2023-04-13T13:53:02.871Z,360
2023-04-13T13:57:01.188Z,360
2023-04-13T14:01:04.649Z,13
2023-04-13T14:03:06.028Z,14
2023-04-13T14:07:10.302Z,14
2023-04-13T14:13:15.335Z,14
2023-04-13T14:17:18.348Z,14
2023-04-13T14:19:20.060Z,14
2023-04-13T14:23:23.074Z,14
2023-04-13T14:29:27.261Z,10
2023-04-13T14:33:30.091Z,10
2023-04-13T14:35:30.959Z,6
2023-04-13T14:39:33.508Z,27
2023-04-13T14:43:36.606Z,28
2023-04-13T14:45:37.611Z,28
2023-04-13T14:49:40.061Z,28
2023-04-13T14:53:43.669Z,28
2023-04-13T14:55:44.853Z,28
2023-04-13T14:59:47.114Z,20
2023-04-13T15:01:48.741Z,20
2023-04-13T15:03:50.290Z,224
2023-04-13T15:05:54.723Z,224
2023-04-13T15:11:55.327Z,224
2023-04-13T15:17:59.763Z,205
2023-04-13T15:22:00.972Z,217
2023-04-13T15:28:05.979Z,225
2023-04-13T15:32:08.204Z,210
2023-04-13T15:34:10.112Z,276
2023-04-13T15:38:12.533Z,194
2023-04-13T15:42:15.520Z,222
2023-04-13T15:44:17.219Z,222
2023-04-13T15:48:20.696Z,193
2023-04-13T15:54:25.208Z,193
2023-04-13T15:58:27.920Z,193
2023-04-13T16:00:29.224Z,193
2023-04-13T16:04:31.854Z,193
2023-04-13T16:10:35.007Z,193
2023-04-13T16:14:37.689Z,193
2023-04-13T16:16:38.943Z,193
2023-04-13T16:20:41.947Z,193
2023-04-13T16:24:44.299Z,193
2023-04-13T16:26:46.066Z,194
2023-04-13T16:30:50.749Z,194
2023-04-13T16:36:55.821Z,194
2023-04-13T16:40:58.094Z,194
2023-04-13T16:42:59.976Z,209
2023-04-13T16:47:02.887Z,295
2023-04-13T16:53:07.012Z,239
2023-04-13T16:57:10.315Z,360
2023-04-13T16:59:12.088Z,360
2023-04-13T17:03:14.477Z,206
2023-04-13T17:07:17.746Z,178
2023-04-13T17:09:19.277Z,136
2023-04-13T17:13:21.508Z,360
2023-04-13T17:17:24.591Z,325
2023-04-13T17:19:25.677Z,31
2023-04-13T17:23:28.820Z,360
2023-04-13T17:25:30.401Z,360
2023-04-13T17:29:33.425Z,360
2023-04-13T17:35:37.157Z,355
2023-04-13T17:41:42.091Z,360
2023-04-13T17:45:45.508Z,360
2023-04-13T17:51:49.744Z,358
2023-04-13T17:55:52.486Z,358
2023-04-13T18:01:57.028Z,357
2023-04-13T18:06:00.296Z,357
2023-04-13T18:08:01.946Z,358
2023-04-13T18:10:03.885Z,358
2023-04-13T18:12:05.002Z,358
2023-04-13T18:18:09.879Z,358
2023-04-13T18:20:11.668Z,358
2023-04-13T18:24:14.191Z,358
2023-04-13T18:28:16.880Z,358
2023-04-13T18:33:03.245Z,358
2023-04-13T18:35:04.692Z,358
2023-04-13T18:39:08.033Z,358
2023-04-13T18:43:18.316Z,358
2023-04-13T18:45:11.700Z,358
2023-04-13T18:49:13.976Z,358
2023-04-13T18:55:18.181Z,358
2023-04-13T18:59:20.888Z,358
2023-04-13T19:01:22.531Z,358
2023-04-13T19:05:25.227Z,358
2023-04-13T19:11:29.159Z,358
2023-04-13T19:15:31.982Z,358
2023-04-13T19:17:33.845Z,358
2023-04-13T19:21:37.193Z,358
2023-04-13T19:25:39.903Z,358
2023-04-13T19:27:42.866Z,358
2023-04-13T19:31:45.002Z,358
2023-04-13T19:37:49.903Z,358
2023-04-13T19:41:52.839Z,358
2023-04-13T19:43:54.224Z,358
2023-04-13T19:47:57.288Z,358
2023-04-13T19:54:02.302Z,358
2023-04-13T20:00:05.780Z,358
2023-04-13T20:04:09.162Z,358
2023-04-13T20:08:11.955Z,358
2023-04-13T20:10:13.509Z,358
2023-04-13T20:14:16.936Z,358
2023-04-13T20:18:19.618Z,358
2023-04-13T20:20:22.514Z,358
2023-04-13T20:24:24.450Z,358
2023-04-13T20:26:27.867Z,358
2023-04-13T20:28:27.480Z,358
2023-04-13T20:30:29.389Z,358
2023-04-13T20:36:33.989Z,358
2023-04-13T20:42:37.666Z,358
2023-04-13T20:46:40.509Z,358
2023-04-13T20:52:43.887Z,358
2023-04-13T20:56:47.432Z,358
2023-04-13T20:58:49.048Z,358
2023-04-13T21:02:51.588Z,358
2023-04-13T21:06:53.912Z,358
2023-04-13T21:08:55.277Z,358
2023-04-13T21:12:58.892Z,358
2023-04-13T21:19:03.626Z,358
2023-04-13T21:25:08.658Z,358
2023-04-13T21:29:11.717Z,358
2023-04-13T21:35:16.573Z,358
2023-04-13T21:39:19.575Z,358
2023-04-13T21:41:21.242Z,358
2023-04-13T21:45:23.545Z,358
2023-04-13T21:49:27.111Z,358
2023-04-13T21:51:28.811Z,359
2023-04-13T21:55:32.321Z,359
2023-04-13T22:01:36.544Z,359
2023-04-13T22:07:43.114Z,359
2023-04-13T22:11:45.107Z,358
2023-04-13T22:17:49.881Z,358
2023-04-13T22:21:52.666Z,358
2023-04-13T22:23:54.186Z,358
2023-04-13T22:27:57.418Z,358
2023-04-13T22:32:00.873Z,358
2023-04-13T22:34:02.314Z,358
2023-04-13T22:38:04.847Z,359
2023-04-13T22:44:09.078Z,359
2023-04-13T22:48:12.583Z,359
2023-04-13T22:50:14.527Z,359
2023-04-13T22:54:16.823Z,359
2023-04-13T23:00:21.072Z,359
2023-04-13T23:04:23.553Z,359
2023-04-13T23:06:25.486Z,358
2023-04-13T23:10:28.321Z,359
2023-04-13T23:14:31.635Z,359
2023-04-13T23:16:32.799Z,359
2023-04-13T23:20:35.592Z,359
2023-04-13T23:26:40.476Z,359
2023-04-13T23:30:43.081Z,359
2023-04-13T23:32:44.880Z,359
2023-04-13T23:36:48.328Z,359
2023-04-13T23:42:52.707Z,359
2023-04-13T23:46:56.326Z,359
2023-04-13T23:48:58.236Z,359
2023-04-13T23:53:00.684Z,359
2023-04-13T23:57:04.227Z,359
2023-04-13T23:59:06.074Z,359
